<?xml version="1.0" encoding="UTF-8" standalone="no" ?>
<gpx xmlns="http://www.topografix.com/GPX/1/1" xmlns:xsi="http://www.w3.org/2001/XMLSchema-instance" xsi:schemaLocation="http://www.topografix.com/GPX/1/1 http://www.topografix.com/GPX/1/1/gpx.xsd" version="1.1" creator="VisuGPX - https://www.visugpx.com">
  <metadata>
    <name>Boucle avant pays savoyard</name>
    <desc><![CDATA[Circuit 2 jours St Pierre d\'Alvey/La Motte Servolex/St Pierre d\'Alvey]]></desc>
  </metadata>
  <trk>
    <name><![CDATA[Parcours 2012-11-25 13:05]]></name>
    <trkseg>
      <trkpt lat="45.58727" lon="5.80986">
        <ele>968.69995117188</ele>
        <time>2012-11-25T12:06:12Z</time>
      </trkpt>
      <trkpt lat="45.58735" lon="5.80978">
        <ele>963.69995117188</ele>
        <time>2012-11-25T12:10:24Z</time>
      </trkpt>
      <trkpt lat="45.58726" lon="5.80983">
        <ele>963.19995117188</ele>
        <time>2012-11-25T12:10:34Z</time>
      </trkpt>
      <trkpt lat="45.58722" lon="5.80995">
        <ele>962.40002441406</ele>
        <time>2012-11-25T12:12:33Z</time>
      </trkpt>
      <trkpt lat="45.58718" lon="5.81007">
        <ele>962.5</ele>
        <time>2012-11-25T12:12:40Z</time>
      </trkpt>
      <trkpt lat="45.58714" lon="5.81022">
        <ele>962.59997558594</ele>
        <time>2012-11-25T12:12:48Z</time>
      </trkpt>
      <trkpt lat="45.58715" lon="5.81037">
        <ele>962.80004882812</ele>
        <time>2012-11-25T12:12:52Z</time>
      </trkpt>
      <trkpt lat="45.5872" lon="5.81051">
        <ele>963</ele>
        <time>2012-11-25T12:12:56Z</time>
      </trkpt>
      <trkpt lat="45.58725" lon="5.81062">
        <ele>964</ele>
        <time>2012-11-25T12:13:02Z</time>
      </trkpt>
      <trkpt lat="45.5873" lon="5.81074">
        <ele>965.19995117188</ele>
        <time>2012-11-25T12:13:09Z</time>
      </trkpt>
      <trkpt lat="45.58735" lon="5.81086">
        <ele>966.30004882812</ele>
        <time>2012-11-25T12:13:16Z</time>
      </trkpt>
      <trkpt lat="45.5874" lon="5.81097">
        <ele>968.80004882812</ele>
        <time>2012-11-25T12:13:23Z</time>
      </trkpt>
      <trkpt lat="45.58744" lon="5.8111">
        <ele>972.19995117188</ele>
        <time>2012-11-25T12:13:32Z</time>
      </trkpt>
      <trkpt lat="45.58747" lon="5.81124">
        <ele>973.19995117188</ele>
        <time>2012-11-25T12:13:40Z</time>
      </trkpt>
      <trkpt lat="45.58755" lon="5.81131">
        <ele>975.19995117188</ele>
        <time>2012-11-25T12:14:00Z</time>
      </trkpt>
      <trkpt lat="45.5876" lon="5.81143">
        <ele>975.59997558594</ele>
        <time>2012-11-25T12:14:08Z</time>
      </trkpt>
      <trkpt lat="45.58765" lon="5.81155">
        <ele>976.80004882812</ele>
        <time>2012-11-25T12:14:15Z</time>
      </trkpt>
      <trkpt lat="45.58769" lon="5.81167">
        <ele>977.69995117188</ele>
        <time>2012-11-25T12:14:24Z</time>
      </trkpt>
      <trkpt lat="45.58772" lon="5.81179">
        <ele>978.09997558594</ele>
        <time>2012-11-25T12:14:32Z</time>
      </trkpt>
      <trkpt lat="45.58763" lon="5.81157">
        <ele>979.09997558594</ele>
        <time>2012-11-25T12:15:19Z</time>
      </trkpt>
      <trkpt lat="45.58758" lon="5.81146">
        <ele>979.30004882812</ele>
        <time>2012-11-25T12:15:25Z</time>
      </trkpt>
      <trkpt lat="45.58744" lon="5.81136">
        <ele>977.69995117188</ele>
        <time>2012-11-25T12:15:43Z</time>
      </trkpt>
      <trkpt lat="45.58739" lon="5.81148">
        <ele>976.5</ele>
        <time>2012-11-25T12:15:52Z</time>
      </trkpt>
      <trkpt lat="45.58743" lon="5.81161">
        <ele>976.59997558594</ele>
        <time>2012-11-25T12:16:01Z</time>
      </trkpt>
      <trkpt lat="45.58744" lon="5.81175">
        <ele>976.90002441406</ele>
        <time>2012-11-25T12:16:10Z</time>
      </trkpt>
      <trkpt lat="45.58741" lon="5.81188">
        <ele>977.80004882812</ele>
        <time>2012-11-25T12:16:18Z</time>
      </trkpt>
      <trkpt lat="45.58735" lon="5.81199">
        <ele>980.30004882812</ele>
        <time>2012-11-25T12:16:25Z</time>
      </trkpt>
      <trkpt lat="45.58729" lon="5.8121">
        <ele>981.40002441406</ele>
        <time>2012-11-25T12:16:32Z</time>
      </trkpt>
      <trkpt lat="45.58727" lon="5.81223">
        <ele>981.90002441406</ele>
        <time>2012-11-25T12:16:39Z</time>
      </trkpt>
      <trkpt lat="45.58726" lon="5.81236">
        <ele>982</ele>
        <time>2012-11-25T12:16:46Z</time>
      </trkpt>
      <trkpt lat="45.58723" lon="5.8125">
        <ele>982.59997558594</ele>
        <time>2012-11-25T12:16:53Z</time>
      </trkpt>
      <trkpt lat="45.58719" lon="5.81261">
        <ele>983.40002441406</ele>
        <time>2012-11-25T12:17:00Z</time>
      </trkpt>
      <trkpt lat="45.58719" lon="5.81275">
        <ele>983.09997558594</ele>
        <time>2012-11-25T12:17:08Z</time>
      </trkpt>
      <trkpt lat="45.58722" lon="5.81288">
        <ele>983.80004882812</ele>
        <time>2012-11-25T12:17:15Z</time>
      </trkpt>
      <trkpt lat="45.58729" lon="5.81297">
        <ele>984.40002441406</ele>
        <time>2012-11-25T12:17:22Z</time>
      </trkpt>
      <trkpt lat="45.58737" lon="5.81304">
        <ele>985.5</ele>
        <time>2012-11-25T12:17:29Z</time>
      </trkpt>
      <trkpt lat="45.58744" lon="5.81312">
        <ele>986</ele>
        <time>2012-11-25T12:17:36Z</time>
      </trkpt>
      <trkpt lat="45.58751" lon="5.8132">
        <ele>987.5</ele>
        <time>2012-11-25T12:17:43Z</time>
      </trkpt>
      <trkpt lat="45.58764" lon="5.8134">
        <ele>989.90002441406</ele>
        <time>2012-11-25T12:17:59Z</time>
      </trkpt>
      <trkpt lat="45.58778" lon="5.81361">
        <ele>991.69995117188</ele>
        <time>2012-11-25T12:18:12Z</time>
      </trkpt>
      <trkpt lat="45.5878" lon="5.81374">
        <ele>992.19995117188</ele>
        <time>2012-11-25T12:18:18Z</time>
      </trkpt>
      <trkpt lat="45.58781" lon="5.81387">
        <ele>993.40002441406</ele>
        <time>2012-11-25T12:18:25Z</time>
      </trkpt>
      <trkpt lat="45.58782" lon="5.814">
        <ele>995.59997558594</ele>
        <time>2012-11-25T12:18:32Z</time>
      </trkpt>
      <trkpt lat="45.58798" lon="5.8141">
        <ele>999.30004882812</ele>
        <time>2012-11-25T12:18:49Z</time>
      </trkpt>
      <trkpt lat="45.58815" lon="5.814">
        <ele>1003</ele>
        <time>2012-11-25T12:19:05Z</time>
      </trkpt>
      <trkpt lat="45.58834" lon="5.81394">
        <ele>1005.0999755859</ele>
        <time>2012-11-25T12:19:19Z</time>
      </trkpt>
      <trkpt lat="45.58843" lon="5.81393">
        <ele>1004.6999511719</ele>
        <time>2012-11-25T12:19:25Z</time>
      </trkpt>
      <trkpt lat="45.58852" lon="5.81388">
        <ele>1004.5999755859</ele>
        <time>2012-11-25T12:19:32Z</time>
      </trkpt>
      <trkpt lat="45.58857" lon="5.81376">
        <ele>1003.1999511719</ele>
        <time>2012-11-25T12:19:40Z</time>
      </trkpt>
      <trkpt lat="45.58861" lon="5.81347">
        <ele>1003.5</ele>
        <time>2012-11-25T12:19:50Z</time>
      </trkpt>
      <trkpt lat="45.5886" lon="5.81318">
        <ele>1004.9000244141</ele>
        <time>2012-11-25T12:19:58Z</time>
      </trkpt>
      <trkpt lat="45.58863" lon="5.81291">
        <ele>1008.1999511719</ele>
        <time>2012-11-25T12:20:11Z</time>
      </trkpt>
      <trkpt lat="45.58877" lon="5.81274">
        <ele>1010.4000244141</ele>
        <time>2012-11-25T12:20:26Z</time>
      </trkpt>
      <trkpt lat="45.58893" lon="5.81256">
        <ele>1015.1999511719</ele>
        <time>2012-11-25T12:20:40Z</time>
      </trkpt>
      <trkpt lat="45.58908" lon="5.8124">
        <ele>1020.5999755859</ele>
        <time>2012-11-25T12:20:54Z</time>
      </trkpt>
      <trkpt lat="45.58927" lon="5.81234">
        <ele>1020.1999511719</ele>
        <time>2012-11-25T12:21:05Z</time>
      </trkpt>
      <trkpt lat="45.58945" lon="5.81222">
        <ele>1019.9000244141</ele>
        <time>2012-11-25T12:21:14Z</time>
      </trkpt>
      <trkpt lat="45.58963" lon="5.81191">
        <ele>1022.6999511719</ele>
        <time>2012-11-25T12:21:35Z</time>
      </trkpt>
      <trkpt lat="45.58977" lon="5.81175">
        <ele>1023.9000244141</ele>
        <time>2012-11-25T12:21:49Z</time>
      </trkpt>
      <trkpt lat="45.58993" lon="5.81158">
        <ele>1024.6999511719</ele>
        <time>2012-11-25T12:22:05Z</time>
      </trkpt>
      <trkpt lat="45.59006" lon="5.81136">
        <ele>1025.9000244141</ele>
        <time>2012-11-25T12:22:16Z</time>
      </trkpt>
      <trkpt lat="45.59022" lon="5.81122">
        <ele>1026.5999755859</ele>
        <time>2012-11-25T12:22:25Z</time>
      </trkpt>
      <trkpt lat="45.59036" lon="5.81106">
        <ele>1027.5999755859</ele>
        <time>2012-11-25T12:22:41Z</time>
      </trkpt>
      <trkpt lat="45.59042" lon="5.8108">
        <ele>1029.1999511719</ele>
        <time>2012-11-25T12:22:56Z</time>
      </trkpt>
      <trkpt lat="45.59046" lon="5.81055">
        <ele>1032.5</ele>
        <time>2012-11-25T12:23:12Z</time>
      </trkpt>
      <trkpt lat="45.59052" lon="5.81028">
        <ele>1035.4000244141</ele>
        <time>2012-11-25T12:23:34Z</time>
      </trkpt>
      <trkpt lat="45.59062" lon="5.8099">
        <ele>1036.8000488281</ele>
        <time>2012-11-25T12:23:59Z</time>
      </trkpt>
      <trkpt lat="45.59068" lon="5.80966">
        <ele>1040.0999755859</ele>
        <time>2012-11-25T12:24:15Z</time>
      </trkpt>
      <trkpt lat="45.59077" lon="5.80943">
        <ele>1043.5</ele>
        <time>2012-11-25T12:24:28Z</time>
      </trkpt>
      <trkpt lat="45.59088" lon="5.80921">
        <ele>1046.4000244141</ele>
        <time>2012-11-25T12:24:47Z</time>
      </trkpt>
      <trkpt lat="45.59102" lon="5.80901">
        <ele>1049.5</ele>
        <time>2012-11-25T12:25:05Z</time>
      </trkpt>
      <trkpt lat="45.59118" lon="5.80887">
        <ele>1055.5</ele>
        <time>2012-11-25T12:25:31Z</time>
      </trkpt>
      <trkpt lat="45.59127" lon="5.80864">
        <ele>1062.0999755859</ele>
        <time>2012-11-25T12:25:45Z</time>
      </trkpt>
      <trkpt lat="45.59142" lon="5.80851">
        <ele>1066.8000488281</ele>
        <time>2012-11-25T12:26:02Z</time>
      </trkpt>
      <trkpt lat="45.59159" lon="5.80844">
        <ele>1072.0999755859</ele>
        <time>2012-11-25T12:26:18Z</time>
      </trkpt>
      <trkpt lat="45.59178" lon="5.80842">
        <ele>1076.5</ele>
        <time>2012-11-25T12:26:32Z</time>
      </trkpt>
      <trkpt lat="45.59198" lon="5.80837">
        <ele>1079.3000488281</ele>
        <time>2012-11-25T12:26:45Z</time>
      </trkpt>
      <trkpt lat="45.59216" lon="5.80829">
        <ele>1084</ele>
        <time>2012-11-25T12:26:57Z</time>
      </trkpt>
      <trkpt lat="45.59234" lon="5.80824">
        <ele>1087.3000488281</ele>
        <time>2012-11-25T12:27:10Z</time>
      </trkpt>
      <trkpt lat="45.59254" lon="5.80822">
        <ele>1092.1999511719</ele>
        <time>2012-11-25T12:27:27Z</time>
      </trkpt>
      <trkpt lat="45.59274" lon="5.80823">
        <ele>1094.9000244141</ele>
        <time>2012-11-25T12:27:37Z</time>
      </trkpt>
      <trkpt lat="45.59293" lon="5.80828">
        <ele>1097.8000488281</ele>
        <time>2012-11-25T12:27:53Z</time>
      </trkpt>
      <trkpt lat="45.59312" lon="5.80834">
        <ele>1103.3000488281</ele>
        <time>2012-11-25T12:28:09Z</time>
      </trkpt>
      <trkpt lat="45.59331" lon="5.80839">
        <ele>1103.4000244141</ele>
        <time>2012-11-25T12:28:15Z</time>
      </trkpt>
      <trkpt lat="45.59354" lon="5.80847">
        <ele>1103.8000488281</ele>
        <time>2012-11-25T12:28:21Z</time>
      </trkpt>
      <trkpt lat="45.59383" lon="5.80855">
        <ele>1104.1999511719</ele>
        <time>2012-11-25T12:28:27Z</time>
      </trkpt>
      <trkpt lat="45.59414" lon="5.80861">
        <ele>1105.6999511719</ele>
        <time>2012-11-25T12:28:33Z</time>
      </trkpt>
      <trkpt lat="45.59445" lon="5.80866">
        <ele>1109.5</ele>
        <time>2012-11-25T12:28:41Z</time>
      </trkpt>
      <trkpt lat="45.59465" lon="5.80868">
        <ele>1114.5999755859</ele>
        <time>2012-11-25T12:29:04Z</time>
      </trkpt>
      <trkpt lat="45.59482" lon="5.80879">
        <ele>1117</ele>
        <time>2012-11-25T12:29:16Z</time>
      </trkpt>
      <trkpt lat="45.59499" lon="5.8089">
        <ele>1119.8000488281</ele>
        <time>2012-11-25T12:29:29Z</time>
      </trkpt>
      <trkpt lat="45.59515" lon="5.80903">
        <ele>1122.0999755859</ele>
        <time>2012-11-25T12:29:40Z</time>
      </trkpt>
      <trkpt lat="45.59537" lon="5.80897">
        <ele>1123.1999511719</ele>
        <time>2012-11-25T12:29:50Z</time>
      </trkpt>
      <trkpt lat="45.59557" lon="5.80895">
        <ele>1124.4000244141</ele>
        <time>2012-11-25T12:30:02Z</time>
      </trkpt>
      <trkpt lat="45.59575" lon="5.80899">
        <ele>1126.8000488281</ele>
        <time>2012-11-25T12:30:18Z</time>
      </trkpt>
      <trkpt lat="45.59593" lon="5.80908">
        <ele>1128.3000488281</ele>
        <time>2012-11-25T12:30:32Z</time>
      </trkpt>
      <trkpt lat="45.5961" lon="5.80921">
        <ele>1127.6999511719</ele>
        <time>2012-11-25T12:30:47Z</time>
      </trkpt>
      <trkpt lat="45.59628" lon="5.80935">
        <ele>1127.9000244141</ele>
        <time>2012-11-25T12:31:00Z</time>
      </trkpt>
      <trkpt lat="45.59646" lon="5.80943">
        <ele>1128</ele>
        <time>2012-11-25T12:31:14Z</time>
      </trkpt>
      <trkpt lat="45.59664" lon="5.80945">
        <ele>1128.5999755859</ele>
        <time>2012-11-25T12:31:28Z</time>
      </trkpt>
      <trkpt lat="45.59683" lon="5.80947">
        <ele>1128.6999511719</ele>
        <time>2012-11-25T12:31:44Z</time>
      </trkpt>
      <trkpt lat="45.59686" lon="5.80973">
        <ele>1127.0999755859</ele>
        <time>2012-11-25T12:32:02Z</time>
      </trkpt>
      <trkpt lat="45.59688" lon="5.81">
        <ele>1126.4000244141</ele>
        <time>2012-11-25T12:32:16Z</time>
      </trkpt>
      <trkpt lat="45.59692" lon="5.81026">
        <ele>1125.5</ele>
        <time>2012-11-25T12:32:30Z</time>
      </trkpt>
      <trkpt lat="45.59693" lon="5.81053">
        <ele>1125</ele>
        <time>2012-11-25T12:32:44Z</time>
      </trkpt>
      <trkpt lat="45.59698" lon="5.8108">
        <ele>1125</ele>
        <time>2012-11-25T12:32:58Z</time>
      </trkpt>
      <trkpt lat="45.59706" lon="5.81103">
        <ele>1124.3000488281</ele>
        <time>2012-11-25T12:33:10Z</time>
      </trkpt>
      <trkpt lat="45.59709" lon="5.81116">
        <ele>1124.1999511719</ele>
        <time>2012-11-25T12:33:16Z</time>
      </trkpt>
      <trkpt lat="45.59709" lon="5.81129">
        <ele>1124.1999511719</ele>
        <time>2012-11-25T12:33:22Z</time>
      </trkpt>
      <trkpt lat="45.5971" lon="5.81145">
        <ele>1124.5999755859</ele>
        <time>2012-11-25T12:33:29Z</time>
      </trkpt>
      <trkpt lat="45.59718" lon="5.81154">
        <ele>1124.3000488281</ele>
        <time>2012-11-25T12:33:35Z</time>
      </trkpt>
      <trkpt lat="45.59725" lon="5.81179">
        <ele>1124.1999511719</ele>
        <time>2012-11-25T12:33:50Z</time>
      </trkpt>
      <trkpt lat="45.59728" lon="5.81206">
        <ele>1123.8000488281</ele>
        <time>2012-11-25T12:34:05Z</time>
      </trkpt>
      <trkpt lat="45.59737" lon="5.81231">
        <ele>1123.6999511719</ele>
        <time>2012-11-25T12:34:19Z</time>
      </trkpt>
      <trkpt lat="45.5974" lon="5.8126">
        <ele>1125.5999755859</ele>
        <time>2012-11-25T12:34:33Z</time>
      </trkpt>
      <trkpt lat="45.59742" lon="5.81289">
        <ele>1127.0999755859</ele>
        <time>2012-11-25T12:34:48Z</time>
      </trkpt>
      <trkpt lat="45.59745" lon="5.81302">
        <ele>1128.4000244141</ele>
        <time>2012-11-25T12:34:55Z</time>
      </trkpt>
      <trkpt lat="45.59749" lon="5.81315">
        <ele>1129.3000488281</ele>
        <time>2012-11-25T12:35:01Z</time>
      </trkpt>
      <trkpt lat="45.59764" lon="5.81337">
        <ele>1130.0999755859</ele>
        <time>2012-11-25T12:35:09Z</time>
      </trkpt>
      <trkpt lat="45.5978" lon="5.81353">
        <ele>1132.1999511719</ele>
        <time>2012-11-25T12:35:17Z</time>
      </trkpt>
      <trkpt lat="45.59791" lon="5.81378">
        <ele>1134.9000244141</ele>
        <time>2012-11-25T12:35:31Z</time>
      </trkpt>
      <trkpt lat="45.59801" lon="5.81399">
        <ele>1137</ele>
        <time>2012-11-25T12:35:43Z</time>
      </trkpt>
      <trkpt lat="45.59813" lon="5.81422">
        <ele>1138.1999511719</ele>
        <time>2012-11-25T12:35:57Z</time>
      </trkpt>
      <trkpt lat="45.59828" lon="5.8144">
        <ele>1141.8000488281</ele>
        <time>2012-11-25T12:36:11Z</time>
      </trkpt>
      <trkpt lat="45.59845" lon="5.81454">
        <ele>1143.1999511719</ele>
        <time>2012-11-25T12:36:24Z</time>
      </trkpt>
      <trkpt lat="45.59862" lon="5.81465">
        <ele>1145.0999755859</ele>
        <time>2012-11-25T12:36:35Z</time>
      </trkpt>
      <trkpt lat="45.5988" lon="5.81479">
        <ele>1146.5</ele>
        <time>2012-11-25T12:36:46Z</time>
      </trkpt>
      <trkpt lat="45.59899" lon="5.81492">
        <ele>1145.9000244141</ele>
        <time>2012-11-25T12:36:57Z</time>
      </trkpt>
      <trkpt lat="45.59908" lon="5.81497">
        <ele>1146</ele>
        <time>2012-11-25T12:37:03Z</time>
      </trkpt>
      <trkpt lat="45.59918" lon="5.81502">
        <ele>1146.4000244141</ele>
        <time>2012-11-25T12:37:09Z</time>
      </trkpt>
      <trkpt lat="45.59936" lon="5.8151">
        <ele>1147.6999511719</ele>
        <time>2012-11-25T12:37:21Z</time>
      </trkpt>
      <trkpt lat="45.59955" lon="5.81518">
        <ele>1150</ele>
        <time>2012-11-25T12:37:34Z</time>
      </trkpt>
      <trkpt lat="45.59971" lon="5.81533">
        <ele>1150.1999511719</ele>
        <time>2012-11-25T12:37:46Z</time>
      </trkpt>
      <trkpt lat="45.59977" lon="5.81543">
        <ele>1150.6999511719</ele>
        <time>2012-11-25T12:37:53Z</time>
      </trkpt>
      <trkpt lat="45.59983" lon="5.81555">
        <ele>1150.5</ele>
        <time>2012-11-25T12:38:01Z</time>
      </trkpt>
      <trkpt lat="45.59997" lon="5.81576">
        <ele>1151.0999755859</ele>
        <time>2012-11-25T12:38:14Z</time>
      </trkpt>
      <trkpt lat="45.60011" lon="5.81595">
        <ele>1153.1999511719</ele>
        <time>2012-11-25T12:38:29Z</time>
      </trkpt>
      <trkpt lat="45.60027" lon="5.8161">
        <ele>1156.0999755859</ele>
        <time>2012-11-25T12:38:44Z</time>
      </trkpt>
      <trkpt lat="45.60043" lon="5.81624">
        <ele>1158.1999511719</ele>
        <time>2012-11-25T12:38:57Z</time>
      </trkpt>
      <trkpt lat="45.60061" lon="5.81637">
        <ele>1161</ele>
        <time>2012-11-25T12:39:12Z</time>
      </trkpt>
      <trkpt lat="45.6008" lon="5.81642">
        <ele>1162.1999511719</ele>
        <time>2012-11-25T12:39:26Z</time>
      </trkpt>
      <trkpt lat="45.60092" lon="5.81621">
        <ele>1163</ele>
        <time>2012-11-25T12:39:34Z</time>
      </trkpt>
      <trkpt lat="45.601" lon="5.81594">
        <ele>1164.8000488281</ele>
        <time>2012-11-25T12:39:44Z</time>
      </trkpt>
      <trkpt lat="45.60105" lon="5.81568">
        <ele>1167.4000244141</ele>
        <time>2012-11-25T12:39:58Z</time>
      </trkpt>
      <trkpt lat="45.60106" lon="5.81541">
        <ele>1170.3000488281</ele>
        <time>2012-11-25T12:40:13Z</time>
      </trkpt>
      <trkpt lat="45.60102" lon="5.81514">
        <ele>1175.5</ele>
        <time>2012-11-25T12:40:29Z</time>
      </trkpt>
      <trkpt lat="45.60098" lon="5.81487">
        <ele>1177.0999755859</ele>
        <time>2012-11-25T12:40:42Z</time>
      </trkpt>
      <trkpt lat="45.60097" lon="5.81459">
        <ele>1178.5999755859</ele>
        <time>2012-11-25T12:40:55Z</time>
      </trkpt>
      <trkpt lat="45.60102" lon="5.81433">
        <ele>1181.8000488281</ele>
        <time>2012-11-25T12:41:08Z</time>
      </trkpt>
      <trkpt lat="45.60104" lon="5.81407">
        <ele>1183</ele>
        <time>2012-11-25T12:41:22Z</time>
      </trkpt>
      <trkpt lat="45.60107" lon="5.8138">
        <ele>1183.6999511719</ele>
        <time>2012-11-25T12:41:36Z</time>
      </trkpt>
      <trkpt lat="45.60111" lon="5.81351">
        <ele>1187.4000244141</ele>
        <time>2012-11-25T12:41:50Z</time>
      </trkpt>
      <trkpt lat="45.60114" lon="5.81323">
        <ele>1189.3000488281</ele>
        <time>2012-11-25T12:42:04Z</time>
      </trkpt>
      <trkpt lat="45.60119" lon="5.81296">
        <ele>1191.5999755859</ele>
        <time>2012-11-25T12:42:18Z</time>
      </trkpt>
      <trkpt lat="45.60121" lon="5.81284">
        <ele>1192.0999755859</ele>
        <time>2012-11-25T12:42:25Z</time>
      </trkpt>
      <trkpt lat="45.6012" lon="5.81255">
        <ele>1193.4000244141</ele>
        <time>2012-11-25T12:42:40Z</time>
      </trkpt>
      <trkpt lat="45.60111" lon="5.81229">
        <ele>1192.4000244141</ele>
        <time>2012-11-25T12:42:54Z</time>
      </trkpt>
      <trkpt lat="45.60105" lon="5.81215">
        <ele>1191.0999755859</ele>
        <time>2012-11-25T12:43:01Z</time>
      </trkpt>
      <trkpt lat="45.60093" lon="5.81191">
        <ele>1187.3000488281</ele>
        <time>2012-11-25T12:43:07Z</time>
      </trkpt>
      <trkpt lat="45.60082" lon="5.81166">
        <ele>1187.3000488281</ele>
        <time>2012-11-25T12:43:14Z</time>
      </trkpt>
      <trkpt lat="45.60074" lon="5.81141">
        <ele>1187.6999511719</ele>
        <time>2012-11-25T12:43:26Z</time>
      </trkpt>
      <trkpt lat="45.60067" lon="5.81116">
        <ele>1190.0999755859</ele>
        <time>2012-11-25T12:43:39Z</time>
      </trkpt>
      <trkpt lat="45.60064" lon="5.81102">
        <ele>1191.9000244141</ele>
        <time>2012-11-25T12:43:46Z</time>
      </trkpt>
      <trkpt lat="45.60059" lon="5.81075">
        <ele>1192.5</ele>
        <time>2012-11-25T12:44:00Z</time>
      </trkpt>
      <trkpt lat="45.60064" lon="5.81048">
        <ele>1194</ele>
        <time>2012-11-25T12:44:14Z</time>
      </trkpt>
      <trkpt lat="45.60076" lon="5.81028">
        <ele>1193.6999511719</ele>
        <time>2012-11-25T12:44:27Z</time>
      </trkpt>
      <trkpt lat="45.6009" lon="5.81009">
        <ele>1193.6999511719</ele>
        <time>2012-11-25T12:44:41Z</time>
      </trkpt>
      <trkpt lat="45.60116" lon="5.8099">
        <ele>1195.5999755859</ele>
        <time>2012-11-25T12:45:03Z</time>
      </trkpt>
      <trkpt lat="45.60142" lon="5.8097">
        <ele>1196.6999511719</ele>
        <time>2012-11-25T12:45:23Z</time>
      </trkpt>
      <trkpt lat="45.60157" lon="5.80953">
        <ele>1198.5999755859</ele>
        <time>2012-11-25T12:45:36Z</time>
      </trkpt>
      <trkpt lat="45.60168" lon="5.8093">
        <ele>1198.0999755859</ele>
        <time>2012-11-25T12:45:49Z</time>
      </trkpt>
      <trkpt lat="45.60177" lon="5.80905">
        <ele>1198.5999755859</ele>
        <time>2012-11-25T12:46:03Z</time>
      </trkpt>
      <trkpt lat="45.60184" lon="5.80865">
        <ele>1205.0999755859</ele>
        <time>2012-11-25T12:46:20Z</time>
      </trkpt>
      <trkpt lat="45.60201" lon="5.80832">
        <ele>1208.3000488281</ele>
        <time>2012-11-25T12:46:39Z</time>
      </trkpt>
      <trkpt lat="45.6022" lon="5.80802">
        <ele>1207</ele>
        <time>2012-11-25T12:47:00Z</time>
      </trkpt>
      <trkpt lat="45.60232" lon="5.8078">
        <ele>1206.0999755859</ele>
        <time>2012-11-25T12:47:13Z</time>
      </trkpt>
      <trkpt lat="45.60253" lon="5.80753">
        <ele>1204.3000488281</ele>
        <time>2012-11-25T12:47:32Z</time>
      </trkpt>
      <trkpt lat="45.6027" lon="5.80743">
        <ele>1203.8000488281</ele>
        <time>2012-11-25T12:47:44Z</time>
      </trkpt>
      <trkpt lat="45.60289" lon="5.80736">
        <ele>1202.4000244141</ele>
        <time>2012-11-25T12:47:56Z</time>
      </trkpt>
      <trkpt lat="45.60307" lon="5.80728">
        <ele>1201.3000488281</ele>
        <time>2012-11-25T12:48:08Z</time>
      </trkpt>
      <trkpt lat="45.60322" lon="5.80708">
        <ele>1200.8000488281</ele>
        <time>2012-11-25T12:48:22Z</time>
      </trkpt>
      <trkpt lat="45.60348" lon="5.80694">
        <ele>1202.5</ele>
        <time>2012-11-25T12:48:43Z</time>
      </trkpt>
      <trkpt lat="45.60375" lon="5.80692">
        <ele>1202.9000244141</ele>
        <time>2012-11-25T12:49:02Z</time>
      </trkpt>
      <trkpt lat="45.60394" lon="5.80684">
        <ele>1201.9000244141</ele>
        <time>2012-11-25T12:49:15Z</time>
      </trkpt>
      <trkpt lat="45.60413" lon="5.80674">
        <ele>1201.5</ele>
        <time>2012-11-25T12:49:27Z</time>
      </trkpt>
      <trkpt lat="45.60432" lon="5.80665">
        <ele>1202.0999755859</ele>
        <time>2012-11-25T12:49:41Z</time>
      </trkpt>
      <trkpt lat="45.60451" lon="5.80657">
        <ele>1197.9000244141</ele>
        <time>2012-11-25T12:49:53Z</time>
      </trkpt>
      <trkpt lat="45.6047" lon="5.80655">
        <ele>1195.3000488281</ele>
        <time>2012-11-25T12:50:05Z</time>
      </trkpt>
      <trkpt lat="45.60501" lon="5.80651">
        <ele>1194.1999511719</ele>
        <time>2012-11-25T12:50:17Z</time>
      </trkpt>
      <trkpt lat="45.60519" lon="5.8065">
        <ele>1194.5999755859</ele>
        <time>2012-11-25T12:50:28Z</time>
      </trkpt>
      <trkpt lat="45.60539" lon="5.80647">
        <ele>1191.8000488281</ele>
        <time>2012-11-25T12:50:42Z</time>
      </trkpt>
      <trkpt lat="45.60557" lon="5.80638">
        <ele>1189.3000488281</ele>
        <time>2012-11-25T12:50:56Z</time>
      </trkpt>
      <trkpt lat="45.60585" lon="5.80621">
        <ele>1185.6999511719</ele>
        <time>2012-11-25T12:51:17Z</time>
      </trkpt>
      <trkpt lat="45.60611" lon="5.80604">
        <ele>1184.3000488281</ele>
        <time>2012-11-25T12:51:38Z</time>
      </trkpt>
      <trkpt lat="45.60636" lon="5.80582">
        <ele>1183</ele>
        <time>2012-11-25T12:51:58Z</time>
      </trkpt>
      <trkpt lat="45.60657" lon="5.80554">
        <ele>1180.8000488281</ele>
        <time>2012-11-25T12:52:18Z</time>
      </trkpt>
      <trkpt lat="45.6067" lon="5.80534">
        <ele>1181.1999511719</ele>
        <time>2012-11-25T12:52:29Z</time>
      </trkpt>
      <trkpt lat="45.6068" lon="5.80508">
        <ele>1182.5999755859</ele>
        <time>2012-11-25T12:52:42Z</time>
      </trkpt>
      <trkpt lat="45.60689" lon="5.80485">
        <ele>1184.1999511719</ele>
        <time>2012-11-25T12:52:54Z</time>
      </trkpt>
      <trkpt lat="45.60699" lon="5.8046">
        <ele>1181.8000488281</ele>
        <time>2012-11-25T12:53:08Z</time>
      </trkpt>
      <trkpt lat="45.60714" lon="5.80443">
        <ele>1178</ele>
        <time>2012-11-25T12:53:22Z</time>
      </trkpt>
      <trkpt lat="45.60741" lon="5.80424">
        <ele>1175.1999511719</ele>
        <time>2012-11-25T12:53:43Z</time>
      </trkpt>
      <trkpt lat="45.60759" lon="5.80414">
        <ele>1175.8000488281</ele>
        <time>2012-11-25T12:53:57Z</time>
      </trkpt>
      <trkpt lat="45.60778" lon="5.80404">
        <ele>1177.3000488281</ele>
        <time>2012-11-25T12:54:13Z</time>
      </trkpt>
      <trkpt lat="45.60796" lon="5.80393">
        <ele>1181</ele>
        <time>2012-11-25T12:54:27Z</time>
      </trkpt>
      <trkpt lat="45.60815" lon="5.80383">
        <ele>1183.6999511719</ele>
        <time>2012-11-25T12:54:39Z</time>
      </trkpt>
      <trkpt lat="45.60835" lon="5.80378">
        <ele>1185.6999511719</ele>
        <time>2012-11-25T12:54:53Z</time>
      </trkpt>
      <trkpt lat="45.60864" lon="5.80383">
        <ele>1185</ele>
        <time>2012-11-25T12:55:11Z</time>
      </trkpt>
      <trkpt lat="45.60893" lon="5.80394">
        <ele>1186.1999511719</ele>
        <time>2012-11-25T12:55:31Z</time>
      </trkpt>
      <trkpt lat="45.60922" lon="5.80403">
        <ele>1187</ele>
        <time>2012-11-25T12:55:49Z</time>
      </trkpt>
      <trkpt lat="45.6095" lon="5.80409">
        <ele>1185.5999755859</ele>
        <time>2012-11-25T12:56:09Z</time>
      </trkpt>
      <trkpt lat="45.60969" lon="5.80411">
        <ele>1181.4000244141</ele>
        <time>2012-11-25T12:56:21Z</time>
      </trkpt>
      <trkpt lat="45.60998" lon="5.80408">
        <ele>1178</ele>
        <time>2012-11-25T12:56:43Z</time>
      </trkpt>
      <trkpt lat="45.61025" lon="5.80395">
        <ele>1172.5</ele>
        <time>2012-11-25T12:57:03Z</time>
      </trkpt>
      <trkpt lat="45.61051" lon="5.80371">
        <ele>1166.3000488281</ele>
        <time>2012-11-25T12:57:22Z</time>
      </trkpt>
      <trkpt lat="45.61069" lon="5.8036">
        <ele>1164.9000244141</ele>
        <time>2012-11-25T12:57:34Z</time>
      </trkpt>
      <trkpt lat="45.61085" lon="5.80346">
        <ele>1163.6999511719</ele>
        <time>2012-11-25T12:57:46Z</time>
      </trkpt>
      <trkpt lat="45.61102" lon="5.80336">
        <ele>1160.9000244141</ele>
        <time>2012-11-25T12:57:58Z</time>
      </trkpt>
      <trkpt lat="45.61122" lon="5.8033">
        <ele>1159.4000244141</ele>
        <time>2012-11-25T12:58:12Z</time>
      </trkpt>
      <trkpt lat="45.61142" lon="5.8033">
        <ele>1158.5</ele>
        <time>2012-11-25T12:58:23Z</time>
      </trkpt>
      <trkpt lat="45.6117" lon="5.80328">
        <ele>1158.0999755859</ele>
        <time>2012-11-25T12:58:41Z</time>
      </trkpt>
      <trkpt lat="45.61199" lon="5.8033">
        <ele>1156.1999511719</ele>
        <time>2012-11-25T12:59:01Z</time>
      </trkpt>
      <trkpt lat="45.61226" lon="5.80346">
        <ele>1150.3000488281</ele>
        <time>2012-11-25T12:59:20Z</time>
      </trkpt>
      <trkpt lat="45.61255" lon="5.80345">
        <ele>1148.5</ele>
        <time>2012-11-25T12:59:40Z</time>
      </trkpt>
      <trkpt lat="45.61284" lon="5.80335">
        <ele>1147.3000488281</ele>
        <time>2012-11-25T13:00:02Z</time>
      </trkpt>
      <trkpt lat="45.61301" lon="5.80322">
        <ele>1143.9000244141</ele>
        <time>2012-11-25T13:00:15Z</time>
      </trkpt>
      <trkpt lat="45.61319" lon="5.80311">
        <ele>1141.9000244141</ele>
        <time>2012-11-25T13:00:25Z</time>
      </trkpt>
      <trkpt lat="45.61339" lon="5.80307">
        <ele>1135.9000244141</ele>
        <time>2012-11-25T13:00:36Z</time>
      </trkpt>
      <trkpt lat="45.61358" lon="5.80309">
        <ele>1134.5999755859</ele>
        <time>2012-11-25T13:00:49Z</time>
      </trkpt>
      <trkpt lat="45.61378" lon="5.80316">
        <ele>1134</ele>
        <time>2012-11-25T13:01:03Z</time>
      </trkpt>
      <trkpt lat="45.61396" lon="5.8032">
        <ele>1134.8000488281</ele>
        <time>2012-11-25T13:01:15Z</time>
      </trkpt>
      <trkpt lat="45.61415" lon="5.80323">
        <ele>1132.0999755859</ele>
        <time>2012-11-25T13:01:25Z</time>
      </trkpt>
      <trkpt lat="45.61434" lon="5.80328">
        <ele>1127.9000244141</ele>
        <time>2012-11-25T13:01:37Z</time>
      </trkpt>
      <trkpt lat="45.61463" lon="5.80328">
        <ele>1124.0999755859</ele>
        <time>2012-11-25T13:01:57Z</time>
      </trkpt>
      <trkpt lat="45.61491" lon="5.80333">
        <ele>1121.5</ele>
        <time>2012-11-25T13:02:15Z</time>
      </trkpt>
      <trkpt lat="45.61517" lon="5.80353">
        <ele>1119.0999755859</ele>
        <time>2012-11-25T13:02:33Z</time>
      </trkpt>
      <trkpt lat="45.61533" lon="5.80367">
        <ele>1116.0999755859</ele>
        <time>2012-11-25T13:02:46Z</time>
      </trkpt>
      <trkpt lat="45.61552" lon="5.80379">
        <ele>1113.4000244141</ele>
        <time>2012-11-25T13:02:59Z</time>
      </trkpt>
      <trkpt lat="45.61571" lon="5.80385">
        <ele>1110.9000244141</ele>
        <time>2012-11-25T13:03:11Z</time>
      </trkpt>
      <trkpt lat="45.6158" lon="5.80385">
        <ele>1109.5999755859</ele>
        <time>2012-11-25T13:03:17Z</time>
      </trkpt>
      <trkpt lat="45.61589" lon="5.80382">
        <ele>1105.9000244141</ele>
        <time>2012-11-25T13:03:23Z</time>
      </trkpt>
      <trkpt lat="45.61598" lon="5.80376">
        <ele>1103.5</ele>
        <time>2012-11-25T13:03:29Z</time>
      </trkpt>
      <trkpt lat="45.61611" lon="5.80356">
        <ele>1098.3000488281</ele>
        <time>2012-11-25T13:03:43Z</time>
      </trkpt>
      <trkpt lat="45.61622" lon="5.80331">
        <ele>1083.0999755859</ele>
        <time>2012-11-25T13:08:28Z</time>
      </trkpt>
    </trkseg>
  </trk>
</gpx>